sensor_id;sensor_type;location;lat;lon;timestamp;temperature;humidity
61145;DHT22;47026;51.208;3.288;2023-01-04T00:00:42;10.20;99.90
61145;DHT22;47026;51.208;3.288;2023-01-04T00:03:07;10.20;99.90
61145;DHT22;47026;51.208;3.288;2023-01-04T00:05:33;10.30;99.90
61145;DHT22;47026;51.208;3.288;2023-01-04T00:07:58;10.30;99.90
61145;DHT22;47026;51.208;3.288;2023-01-04T00:10:24;10.30;99.90
61145;DHT22;47026;51.208;3.288;2023-01-04T00:12:49;10.30;99.90
61145;DHT22;47026;51.208;3.288;2023-01-04T00:15:15;10.30;99.90
61145;DHT22;47026;51.208;3.288;2023-01-04T00:17:41;10.40;99.90
61145;DHT22;47026;51.208;3.288;2023-01-04T00:20:06;10.40;99.90
61145;DHT22;47026;51.208;3.288;2023-01-04T00:22:33;10.50;99.90
61145;DHT22;47026;51.208;3.288;2023-01-04T00:24:59;10.50;99.90
61145;DHT22;47026;51.208;3.288;2023-01-04T00:27:24;10.50;99.90
61145;DHT22;47026;51.208;3.288;2023-01-04T00:29:50;10.60;99.90
61145;DHT22;47026;51.208;3.288;2023-01-04T00:32:16;10.60;99.90
61145;DHT22;47026;51.208;3.288;2023-01-04T00:34:41;10.60;99.90
61145;DHT22;47026;51.208;3.288;2023-01-04T00:37:07;10.60;99.90
61145;DHT22;47026;51.208;3.288;2023-01-04T00:39:33;10.60;99.90
61145;DHT22;47026;51.208;3.288;2023-01-04T00:41:58;10.70;99.90
61145;DHT22;47026;51.208;3.288;2023-01-04T00:44:30;10.60;99.90
61145;DHT22;47026;51.208;3.288;2023-01-04T00:46:56;10.70;99.90
61145;DHT22;47026;51.208;3.288;2023-01-04T00:49:21;10.70;99.90
61145;DHT22;47026;51.208;3.288;2023-01-04T00:51:47;10.70;99.90
61145;DHT22;47026;51.208;3.288;2023-01-04T00:54:13;10.70;99.90
61145;DHT22;47026;51.208;3.288;2023-01-04T00:56:39;10.70;99.90
61145;DHT22;47026;51.208;3.288;2023-01-04T00:59:05;10.70;99.90
61145;DHT22;47026;51.208;3.288;2023-01-04T01:01:31;10.70;99.90
61145;DHT22;47026;51.208;3.288;2023-01-04T01:03:58;10.70;99.90
61145;DHT22;47026;51.208;3.288;2023-01-04T01:06:25;10.70;99.90
61145;DHT22;47026;51.208;3.288;2023-01-04T01:08:51;10.70;99.90
61145;DHT22;47026;51.208;3.288;2023-01-04T01:11:17;10.70;99.90
61145;DHT22;47026;51.208;3.288;2023-01-04T01:13:43;10.70;99.90
61145;DHT22;47026;51.208;3.288;2023-01-04T01:16:10;10.80;99.90
61145;DHT22;47026;51.208;3.288;2023-01-04T01:18:36;10.80;99.90
61145;DHT22;47026;51.208;3.288;2023-01-04T01:21:06;10.90;99.90
61145;DHT22;47026;51.208;3.288;2023-01-04T01:23:32;10.90;99.90
61145;DHT22;47026;51.208;3.288;2023-01-04T01:26:01;10.90;99.90
61145;DHT22;47026;51.208;3.288;2023-01-04T01:28:27;10.80;99.90
61145;DHT22;47026;51.208;3.288;2023-01-04T01:30:53;10.80;99.90
61145;DHT22;47026;51.208;3.288;2023-01-04T01:33:18;10.90;99.90
61145;DHT22;47026;51.208;3.288;2023-01-04T01:35:44;10.80;99.90
61145;DHT22;47026;51.208;3.288;2023-01-04T01:38:10;10.80;99.90
61145;DHT22;47026;51.208;3.288;2023-01-04T01:40:41;10.80;99.90
61145;DHT22;47026;51.208;3.288;2023-01-04T01:43:14;10.90;99.90
61145;DHT22;47026;51.208;3.288;2023-01-04T01:45:40;10.80;99.90
61145;DHT22;47026;51.208;3.288;2023-01-04T01:48:10;10.90;99.90
61145;DHT22;47026;51.208;3.288;2023-01-04T01:50:47;10.80;99.90
61145;DHT22;47026;51.208;3.288;2023-01-04T01:53:14;10.90;99.90
61145;DHT22;47026;51.208;3.288;2023-01-04T01:55:39;10.90;99.90
61145;DHT22;47026;51.208;3.288;2023-01-04T01:58:06;10.90;99.90
61145;DHT22;47026;51.208;3.288;2023-01-04T02:00:32;11.00;99.90
61145;DHT22;47026;51.208;3.288;2023-01-04T02:03:02;10.90;99.90
61145;DHT22;47026;51.208;3.288;2023-01-04T02:05:29;10.90;99.90
61145;DHT22;47026;51.208;3.288;2023-01-04T02:07:55;11.00;99.90
61145;DHT22;47026;51.208;3.288;2023-01-04T02:10:21;11.00;99.90
61145;DHT22;47026;51.208;3.288;2023-01-04T02:12:47;11.00;99.90
61145;DHT22;47026;51.208;3.288;2023-01-04T02:15:15;11.00;99.90
61145;DHT22;47026;51.208;3.288;2023-01-04T02:17:55;11.00;99.90
61145;DHT22;47026;51.208;3.288;2023-01-04T02:33:51;11.10;99.90
61145;DHT22;47026;51.208;3.288;2023-01-04T02:36:29;11.20;99.90
61145;DHT22;47026;51.208;3.288;2023-01-04T02:41:32;11.20;99.90
61145;DHT22;47026;51.208;3.288;2023-01-04T02:46:47;11.20;99.90
61145;DHT22;47026;51.208;3.288;2023-01-04T02:49:14;11.30;99.90
61145;DHT22;47026;51.208;3.288;2023-01-04T02:52:09;11.30;99.90
61145;DHT22;47026;51.208;3.288;2023-01-04T02:54:34;11.40;99.90
61145;DHT22;47026;51.208;3.288;2023-01-04T03:00:03;11.30;99.90
61145;DHT22;47026;51.208;3.288;2023-01-04T03:02:35;11.30;99.90
61145;DHT22;47026;51.208;3.288;2023-01-04T03:05:32;11.40;99.90
61145;DHT22;47026;51.208;3.288;2023-01-04T03:08:39;11.40;99.90
61145;DHT22;47026;51.208;3.288;2023-01-04T03:11:15;11.40;99.90
61145;DHT22;47026;51.208;3.288;2023-01-04T03:16:29;11.40;99.90
61145;DHT22;47026;51.208;3.288;2023-01-04T03:18:56;11.40;99.90
61145;DHT22;47026;51.208;3.288;2023-01-04T03:21:23;11.50;99.90
61145;DHT22;47026;51.208;3.288;2023-01-04T03:23:49;11.50;99.90
61145;DHT22;47026;51.208;3.288;2023-01-04T03:26:37;11.60;99.90
61145;DHT22;47026;51.208;3.288;2023-01-04T03:32:11;11.50;99.90
61145;DHT22;47026;51.208;3.288;2023-01-04T03:34:56;11.50;99.90
61145;DHT22;47026;51.208;3.288;2023-01-04T03:43:00;11.50;99.90
61145;DHT22;47026;51.208;3.288;2023-01-04T03:45:49;11.50;99.90
61145;DHT22;47026;51.208;3.288;2023-01-04T03:48:42;11.50;99.90
61145;DHT22;47026;51.208;3.288;2023-01-04T03:51:10;11.50;99.90
61145;DHT22;47026;51.208;3.288;2023-01-04T03:53:50;11.40;99.90
61145;DHT22;47026;51.208;3.288;2023-01-04T03:56:17;11.50;99.90
61145;DHT22;47026;51.208;3.288;2023-01-04T03:58:44;11.50;99.90
61145;DHT22;47026;51.208;3.288;2023-01-04T04:01:10;11.50;99.90
61145;DHT22;47026;51.208;3.288;2023-01-04T04:03:36;11.50;99.90
61145;DHT22;47026;51.208;3.288;2023-01-04T04:06:20;11.50;99.90
61145;DHT22;47026;51.208;3.288;2023-01-04T04:09:04;11.50;99.90
61145;DHT22;47026;51.208;3.288;2023-01-04T04:11:30;11.50;99.90
61145;DHT22;47026;51.208;3.288;2023-01-04T04:13:56;11.60;99.90
61145;DHT22;47026;51.208;3.288;2023-01-04T04:16:23;11.60;99.90
61145;DHT22;47026;51.208;3.288;2023-01-04T04:18:48;11.60;99.90
61145;DHT22;47026;51.208;3.288;2023-01-04T04:21:14;11.50;99.90
61145;DHT22;47026;51.208;3.288;2023-01-04T04:23:40;11.50;99.90
61145;DHT22;47026;51.208;3.288;2023-01-04T04:26:05;11.60;99.90
61145;DHT22;47026;51.208;3.288;2023-01-04T04:28:31;11.60;99.90
61145;DHT22;47026;51.208;3.288;2023-01-04T04:30:57;11.60;99.90
61145;DHT22;47026;51.208;3.288;2023-01-04T04:33:23;11.60;99.90
61145;DHT22;47026;51.208;3.288;2023-01-04T04:35:51;11.60;99.90
61145;DHT22;47026;51.208;3.288;2023-01-04T04:38:17;11.60;99.90
61145;DHT22;47026;51.208;3.288;2023-01-04T04:40:43;11.70;99.90
61145;DHT22;47026;51.208;3.288;2023-01-04T04:43:27;11.70;99.90
61145;DHT22;47026;51.208;3.288;2023-01-04T04:45:53;11.80;99.90
61145;DHT22;47026;51.208;3.288;2023-01-04T04:48:19;11.80;99.90
61145;DHT22;47026;51.208;3.288;2023-01-04T04:50:44;11.90;99.90
61145;DHT22;47026;51.208;3.288;2023-01-04T04:53:10;11.90;99.90
61145;DHT22;47026;51.208;3.288;2023-01-04T04:55:36;11.90;99.90
61145;DHT22;47026;51.208;3.288;2023-01-04T04:58:01;11.90;99.90
61145;DHT22;47026;51.208;3.288;2023-01-04T05:00:27;11.90;99.90
61145;DHT22;47026;51.208;3.288;2023-01-04T05:02:53;11.90;99.90
61145;DHT22;47026;51.208;3.288;2023-01-04T05:05:18;12.00;99.90
61145;DHT22;47026;51.208;3.288;2023-01-04T05:07:44;12.00;99.90
61145;DHT22;47026;51.208;3.288;2023-01-04T05:10:10;12.10;99.90
61145;DHT22;47026;51.208;3.288;2023-01-04T05:12:35;12.00;99.90
61145;DHT22;47026;51.208;3.288;2023-01-04T05:15:46;12.00;99.90
61145;DHT22;47026;51.208;3.288;2023-01-04T05:18:11;12.10;99.90
61145;DHT22;47026;51.208;3.288;2023-01-04T05:20:37;12.10;99.90
61145;DHT22;47026;51.208;3.288;2023-01-04T05:23:03;12.10;99.90
61145;DHT22;47026;51.208;3.288;2023-01-04T05:25:29;12.10;99.90
61145;DHT22;47026;51.208;3.288;2023-01-04T05:27:55;12.20;99.90
61145;DHT22;47026;51.208;3.288;2023-01-04T05:30:20;12.20;99.90
61145;DHT22;47026;51.208;3.288;2023-01-04T05:33:05;12.20;99.90
61145;DHT22;47026;51.208;3.288;2023-01-04T05:35:31;12.30;99.90
61145;DHT22;47026;51.208;3.288;2023-01-04T05:37:57;12.30;99.90
61145;DHT22;47026;51.208;3.288;2023-01-04T05:40:23;12.30;99.90
61145;DHT22;47026;51.208;3.288;2023-01-04T05:42:49;12.30;99.90
61145;DHT22;47026;51.208;3.288;2023-01-04T05:45:15;12.40;99.90
61145;DHT22;47026;51.208;3.288;2023-01-04T05:47:41;12.40;99.90
61145;DHT22;47026;51.208;3.288;2023-01-04T05:50:06;12.40;99.90
61145;DHT22;47026;51.208;3.288;2023-01-04T05:52:32;12.50;99.90
61145;DHT22;47026;51.208;3.288;2023-01-04T05:54:58;12.50;99.90
61145;DHT22;47026;51.208;3.288;2023-01-04T05:57:24;12.50;99.90
61145;DHT22;47026;51.208;3.288;2023-01-04T05:59:49;12.50;99.90
61145;DHT22;47026;51.208;3.288;2023-01-04T06:02:23;12.60;99.90
61145;DHT22;47026;51.208;3.288;2023-01-04T06:04:48;12.60;99.90
61145;DHT22;47026;51.208;3.288;2023-01-04T06:07:14;12.50;99.90
61145;DHT22;47026;51.208;3.288;2023-01-04T06:09:40;12.50;99.90
61145;DHT22;47026;51.208;3.288;2023-01-04T06:12:06;12.50;99.90
61145;DHT22;47026;51.208;3.288;2023-01-04T06:14:32;12.50;99.90
61145;DHT22;47026;51.208;3.288;2023-01-04T06:16:58;12.50;99.90
61145;DHT22;47026;51.208;3.288;2023-01-04T06:19:24;12.40;99.90
61145;DHT22;47026;51.208;3.288;2023-01-04T06:21:50;12.40;99.90
61145;DHT22;47026;51.208;3.288;2023-01-04T06:24:15;12.30;99.90
61145;DHT22;47026;51.208;3.288;2023-01-04T06:26:41;12.20;99.90
61145;DHT22;47026;51.208;3.288;2023-01-04T06:29:07;12.10;99.90
61145;DHT22;47026;51.208;3.288;2023-01-04T06:31:32;12.10;99.90
61145;DHT22;47026;51.208;3.288;2023-01-04T06:33:58;12.10;99.90
61145;DHT22;47026;51.208;3.288;2023-01-04T06:36:24;12.20;99.90
61145;DHT22;47026;51.208;3.288;2023-01-04T06:38:50;12.20;99.90
61145;DHT22;47026;51.208;3.288;2023-01-04T06:41:16;12.20;99.90
61145;DHT22;47026;51.208;3.288;2023-01-04T06:43:42;12.20;99.90
61145;DHT22;47026;51.208;3.288;2023-01-04T06:46:07;12.30;99.90
61145;DHT22;47026;51.208;3.288;2023-01-04T06:48:33;12.30;99.90
61145;DHT22;47026;51.208;3.288;2023-01-04T06:50:59;12.30;99.90
61145;DHT22;47026;51.208;3.288;2023-01-04T06:53:24;12.30;99.90
61145;DHT22;47026;51.208;3.288;2023-01-04T06:55:50;12.40;99.90
61145;DHT22;47026;51.208;3.288;2023-01-04T06:58:16;12.40;99.90
61145;DHT22;47026;51.208;3.288;2023-01-04T07:00:42;12.50;99.90
61145;DHT22;47026;51.208;3.288;2023-01-04T07:03:08;12.50;99.90
61145;DHT22;47026;51.208;3.288;2023-01-04T07:05:34;12.50;99.90
61145;DHT22;47026;51.208;3.288;2023-01-04T07:08:00;12.50;99.90
61145;DHT22;47026;51.208;3.288;2023-01-04T07:10:26;12.50;99.90
61145;DHT22;47026;51.208;3.288;2023-01-04T07:12:51;12.50;99.90
61145;DHT22;47026;51.208;3.288;2023-01-04T07:15:17;12.60;99.90
61145;DHT22;47026;51.208;3.288;2023-01-04T07:17:45;12.60;99.90
61145;DHT22;47026;51.208;3.288;2023-01-04T07:20:11;12.50;99.90
61145;DHT22;47026;51.208;3.288;2023-01-04T07:22:37;12.50;99.90
61145;DHT22;47026;51.208;3.288;2023-01-04T07:25:02;12.60;99.90
61145;DHT22;47026;51.208;3.288;2023-01-04T07:27:28;12.60;99.90
61145;DHT22;47026;51.208;3.288;2023-01-04T07:29:54;12.60;99.90
61145;DHT22;47026;51.208;3.288;2023-01-04T07:32:20;12.60;99.90
61145;DHT22;47026;51.208;3.288;2023-01-04T07:34:45;12.70;99.90
61145;DHT22;47026;51.208;3.288;2023-01-04T07:37:11;12.70;99.90
61145;DHT22;47026;51.208;3.288;2023-01-04T07:39:37;12.70;99.90
61145;DHT22;47026;51.208;3.288;2023-01-04T07:42:03;12.70;99.90
61145;DHT22;47026;51.208;3.288;2023-01-04T07:44:29;12.70;99.90
61145;DHT22;47026;51.208;3.288;2023-01-04T07:46:55;12.80;99.90
61145;DHT22;47026;51.208;3.288;2023-01-04T07:49:21;12.80;99.90
61145;DHT22;47026;51.208;3.288;2023-01-04T07:51:47;12.80;99.90
61145;DHT22;47026;51.208;3.288;2023-01-04T07:54:14;12.70;99.90
61145;DHT22;47026;51.208;3.288;2023-01-04T07:56:39;12.70;99.90
61145;DHT22;47026;51.208;3.288;2023-01-04T07:59:09;12.70;99.90
61145;DHT22;47026;51.208;3.288;2023-01-04T08:01:35;12.70;99.90
61145;DHT22;47026;51.208;3.288;2023-01-04T08:04:03;12.70;99.90
61145;DHT22;47026;51.208;3.288;2023-01-04T08:06:29;12.70;99.90
61145;DHT22;47026;51.208;3.288;2023-01-04T08:08:54;12.70;99.90
61145;DHT22;47026;51.208;3.288;2023-01-04T08:11:20;12.70;99.90
61145;DHT22;47026;51.208;3.288;2023-01-04T08:13:47;12.70;99.90
61145;DHT22;47026;51.208;3.288;2023-01-04T08:16:17;12.70;99.90
61145;DHT22;47026;51.208;3.288;2023-01-04T08:18:43;12.70;99.90
61145;DHT22;47026;51.208;3.288;2023-01-04T08:21:09;12.80;99.90
61145;DHT22;47026;51.208;3.288;2023-01-04T08:23:35;12.70;99.90
61145;DHT22;47026;51.208;3.288;2023-01-04T08:26:05;12.70;99.90
61145;DHT22;47026;51.208;3.288;2023-01-04T08:28:31;12.70;99.90
61145;DHT22;47026;51.208;3.288;2023-01-04T08:30:57;12.80;99.90
61145;DHT22;47026;51.208;3.288;2023-01-04T08:33:24;12.80;99.90
61145;DHT22;47026;51.208;3.288;2023-01-04T08:35:49;12.80;99.90
61145;DHT22;47026;51.208;3.288;2023-01-04T08:38:15;12.80;99.90
61145;DHT22;47026;51.208;3.288;2023-01-04T08:40:41;12.70;99.90
61145;DHT22;47026;51.208;3.288;2023-01-04T08:43:06;12.70;99.90
61145;DHT22;47026;51.208;3.288;2023-01-04T08:45:32;12.70;99.90
61145;DHT22;47026;51.208;3.288;2023-01-04T08:47:58;12.70;99.90
61145;DHT22;47026;51.208;3.288;2023-01-04T08:50:23;12.70;99.90
61145;DHT22;47026;51.208;3.288;2023-01-04T08:52:49;12.60;99.90
61145;DHT22;47026;51.208;3.288;2023-01-04T08:55:15;12.50;99.90
61145;DHT22;47026;51.208;3.288;2023-01-04T08:57:41;12.50;99.90
61145;DHT22;47026;51.208;3.288;2023-01-04T09:00:07;12.40;99.90
61145;DHT22;47026;51.208;3.288;2023-01-04T09:02:33;12.50;99.90
61145;DHT22;47026;51.208;3.288;2023-01-04T09:04:59;12.40;99.90
61145;DHT22;47026;51.208;3.288;2023-01-04T09:07:27;12.40;99.90
61145;DHT22;47026;51.208;3.288;2023-01-04T09:09:53;12.40;99.90
61145;DHT22;47026;51.208;3.288;2023-01-04T09:12:19;12.40;99.90
61145;DHT22;47026;51.208;3.288;2023-01-04T09:14:44;12.40;99.90
61145;DHT22;47026;51.208;3.288;2023-01-04T09:17:10;12.40;99.90
61145;DHT22;47026;51.208;3.288;2023-01-04T09:19:36;12.40;99.90
61145;DHT22;47026;51.208;3.288;2023-01-04T09:22:01;12.40;99.90
61145;DHT22;47026;51.208;3.288;2023-01-04T09:24:27;12.40;99.90
61145;DHT22;47026;51.208;3.288;2023-01-04T09:26:53;12.40;99.90
61145;DHT22;47026;51.208;3.288;2023-01-04T09:29:19;12.40;99.90
61145;DHT22;47026;51.208;3.288;2023-01-04T09:31:44;12.40;99.90
61145;DHT22;47026;51.208;3.288;2023-01-04T09:34:10;12.40;99.90
61145;DHT22;47026;51.208;3.288;2023-01-04T09:36:37;12.40;99.90
61145;DHT22;47026;51.208;3.288;2023-01-04T09:39:03;12.50;99.90
61145;DHT22;47026;51.208;3.288;2023-01-04T09:41:30;12.40;99.90
61145;DHT22;47026;51.208;3.288;2023-01-04T09:44:02;12.40;99.90
61145;DHT22;47026;51.208;3.288;2023-01-04T09:51:42;12.40;99.90
61145;DHT22;47026;51.208;3.288;2023-01-04T09:54:14;12.40;99.90
61145;DHT22;47026;51.208;3.288;2023-01-04T09:56:45;12.50;99.90
61145;DHT22;47026;51.208;3.288;2023-01-04T09:59:13;12.50;99.90
61145;DHT22;47026;51.208;3.288;2023-01-04T10:01:44;12.50;99.90
61145;DHT22;47026;51.208;3.288;2023-01-04T10:06:55;12.60;99.90
61145;DHT22;47026;51.208;3.288;2023-01-04T10:09:21;12.60;99.90
61145;DHT22;47026;51.208;3.288;2023-01-04T10:14:34;12.60;99.90
61145;DHT22;47026;51.208;3.288;2023-01-04T10:17:16;12.50;99.90
61145;DHT22;47026;51.208;3.288;2023-01-04T10:25:02;12.60;99.90
61145;DHT22;47026;51.208;3.288;2023-01-04T10:35:25;12.70;99.90
61145;DHT22;47026;51.208;3.288;2023-01-04T10:37:52;12.70;99.90
61145;DHT22;47026;51.208;3.288;2023-01-04T10:40:21;12.70;99.90
61145;DHT22;47026;51.208;3.288;2023-01-04T10:47:54;12.70;99.90
61145;DHT22;47026;51.208;3.288;2023-01-04T10:53:45;12.80;99.90
61145;DHT22;47026;51.208;3.288;2023-01-04T10:55:53;12.80;99.90
61145;DHT22;47026;51.208;3.288;2023-01-04T11:00:55;12.90;99.90
61145;DHT22;47026;51.208;3.288;2023-01-04T11:03:25;12.90;99.90
61145;DHT22;47026;51.208;3.288;2023-01-04T11:06:14;12.90;99.90
61145;DHT22;47026;51.208;3.288;2023-01-04T11:09:12;13.00;99.90
61145;DHT22;47026;51.208;3.288;2023-01-04T11:11:43;13.00;99.90
61145;DHT22;47026;51.208;3.288;2023-01-04T11:14:10;13.00;99.90
61145;DHT22;47026;51.208;3.288;2023-01-04T11:16:36;13.10;99.90
61145;DHT22;47026;51.208;3.288;2023-01-04T11:19:02;13.20;99.90
61145;DHT22;47026;51.208;3.288;2023-01-04T11:21:30;13.20;99.90
61145;DHT22;47026;51.208;3.288;2023-01-04T11:24:00;13.10;99.90
61145;DHT22;47026;51.208;3.288;2023-01-04T11:26:30;13.20;99.90
61145;DHT22;47026;51.208;3.288;2023-01-04T11:29:04;13.20;99.90
61145;DHT22;47026;51.208;3.288;2023-01-04T11:34:05;13.20;99.90
61145;DHT22;47026;51.208;3.288;2023-01-04T11:36:37;13.20;99.90
61145;DHT22;47026;51.208;3.288;2023-01-04T11:39:16;13.20;99.90
61145;DHT22;47026;51.208;3.288;2023-01-04T11:41:56;13.20;99.90
61145;DHT22;47026;51.208;3.288;2023-01-04T11:44:22;13.20;99.90
61145;DHT22;47026;51.208;3.288;2023-01-04T11:47:03;13.20;99.90
61145;DHT22;47026;51.208;3.288;2023-01-04T11:49:33;13.30;99.90
61145;DHT22;47026;51.208;3.288;2023-01-04T11:52:00;13.20;99.90
61145;DHT22;47026;51.208;3.288;2023-01-04T11:54:26;13.30;99.90
61145;DHT22;47026;51.208;3.288;2023-01-04T11:57:05;13.30;99.90
61145;DHT22;47026;51.208;3.288;2023-01-04T11:59:34;13.30;99.90
61145;DHT22;47026;51.208;3.288;2023-01-04T12:04:44;13.30;99.90
61145;DHT22;47026;51.208;3.288;2023-01-04T12:07:22;13.30;99.90
61145;DHT22;47026;51.208;3.288;2023-01-04T12:09:50;13.20;99.90
61145;DHT22;47026;51.208;3.288;2023-01-04T12:12:15;13.20;99.90
61145;DHT22;47026;51.208;3.288;2023-01-04T12:14:45;13.20;99.90
61145;DHT22;47026;51.208;3.288;2023-01-04T12:17:12;13.20;99.90
61145;DHT22;47026;51.208;3.288;2023-01-04T12:19:41;13.30;99.90
61145;DHT22;47026;51.208;3.288;2023-01-04T12:22:50;13.20;99.90
61145;DHT22;47026;51.208;3.288;2023-01-04T12:24:56;13.20;99.90
61145;DHT22;47026;51.208;3.288;2023-01-04T12:27:22;13.20;99.90
61145;DHT22;47026;51.208;3.288;2023-01-04T12:29:55;13.20;99.90
61145;DHT22;47026;51.208;3.288;2023-01-04T12:34:47;13.20;99.90
61145;DHT22;47026;51.208;3.288;2023-01-04T12:39:57;13.20;99.90
61145;DHT22;47026;51.208;3.288;2023-01-04T12:42:23;13.20;99.90
61145;DHT22;47026;51.208;3.288;2023-01-04T12:50:13;13.40;99.90
61145;DHT22;47026;51.208;3.288;2023-01-04T12:55:24;13.40;99.90
61145;DHT22;47026;51.208;3.288;2023-01-04T12:57:51;13.40;99.90
61145;DHT22;47026;51.208;3.288;2023-01-04T13:00:16;13.40;99.90
61145;DHT22;47026;51.208;3.288;2023-01-04T13:02:43;13.40;99.90
61145;DHT22;47026;51.208;3.288;2023-01-04T13:07:53;13.40;99.90
61145;DHT22;47026;51.208;3.288;2023-01-04T13:18:00;13.60;99.90
61145;DHT22;47026;51.208;3.288;2023-01-04T13:20:26;13.60;99.90
61145;DHT22;47026;51.208;3.288;2023-01-04T13:22:55;13.60;99.90
61145;DHT22;47026;51.208;3.288;2023-01-04T13:25:22;13.50;99.90
61145;DHT22;47026;51.208;3.288;2023-01-04T13:27:59;13.50;99.90
61145;DHT22;47026;51.208;3.288;2023-01-04T13:32:57;13.50;99.90
61145;DHT22;47026;51.208;3.288;2023-01-04T13:35:23;13.40;99.90
61145;DHT22;47026;51.208;3.288;2023-01-04T13:37:49;13.40;99.90
61145;DHT22;47026;51.208;3.288;2023-01-04T13:40:28;13.40;99.90
61145;DHT22;47026;51.208;3.288;2023-01-04T13:48:13;13.20;99.90
61145;DHT22;47026;51.208;3.288;2023-01-04T13:50:43;13.20;99.90
61145;DHT22;47026;51.208;3.288;2023-01-04T13:53:19;13.10;99.90
61145;DHT22;47026;51.208;3.288;2023-01-04T13:55:48;13.10;99.90
61145;DHT22;47026;51.208;3.288;2023-01-04T13:58:18;13.00;99.90
61145;DHT22;47026;51.208;3.288;2023-01-04T14:01:05;13.00;99.90
61145;DHT22;47026;51.208;3.288;2023-01-04T14:06:00;13.00;99.90
61145;DHT22;47026;51.208;3.288;2023-01-04T14:08:32;13.00;99.90
61145;DHT22;47026;51.208;3.288;2023-01-04T14:10:58;13.10;99.90
61145;DHT22;47026;51.208;3.288;2023-01-04T14:13:24;13.10;99.90
61145;DHT22;47026;51.208;3.288;2023-01-04T14:16:11;13.00;99.90
61145;DHT22;47026;51.208;3.288;2023-01-04T14:18:36;13.00;99.90
61145;DHT22;47026;51.208;3.288;2023-01-04T14:21:02;13.10;99.90
61145;DHT22;47026;51.208;3.288;2023-01-04T14:23:34;13.10;99.90
61145;DHT22;47026;51.208;3.288;2023-01-04T14:26:00;13.10;99.90
61145;DHT22;47026;51.208;3.288;2023-01-04T14:28:27;13.10;99.90
61145;DHT22;47026;51.208;3.288;2023-01-04T14:38:38;13.10;99.90
61145;DHT22;47026;51.208;3.288;2023-01-04T14:43:42;13.00;99.90
61145;DHT22;47026;51.208;3.288;2023-01-04T14:46:08;13.10;99.90
61145;DHT22;47026;51.208;3.288;2023-01-04T14:48:34;13.00;99.90
61145;DHT22;47026;51.208;3.288;2023-01-04T14:50:59;13.00;99.90
61145;DHT22;47026;51.208;3.288;2023-01-04T14:53:25;13.00;99.90
61145;DHT22;47026;51.208;3.288;2023-01-04T14:55:51;13.10;99.90
61145;DHT22;47026;51.208;3.288;2023-01-04T14:58:19;13.00;99.90
61145;DHT22;47026;51.208;3.288;2023-01-04T15:00:44;13.00;99.90
61145;DHT22;47026;51.208;3.288;2023-01-04T15:03:10;12.90;99.90
61145;DHT22;47026;51.208;3.288;2023-01-04T15:05:36;12.80;99.90
61145;DHT22;47026;51.208;3.288;2023-01-04T15:08:01;12.90;99.90
61145;DHT22;47026;51.208;3.288;2023-01-04T15:10:28;12.90;99.90
61145;DHT22;47026;51.208;3.288;2023-01-04T15:12:54;12.90;99.90
61145;DHT22;47026;51.208;3.288;2023-01-04T15:15:20;12.80;99.90
61145;DHT22;47026;51.208;3.288;2023-01-04T15:17:46;12.70;99.90
61145;DHT22;47026;51.208;3.288;2023-01-04T15:20:12;12.70;99.90
61145;DHT22;47026;51.208;3.288;2023-01-04T15:22:38;12.80;99.90
61145;DHT22;47026;51.208;3.288;2023-01-04T15:25:04;12.70;99.90
61145;DHT22;47026;51.208;3.288;2023-01-04T15:27:30;12.70;99.90
61145;DHT22;47026;51.208;3.288;2023-01-04T15:29:56;12.70;99.90
61145;DHT22;47026;51.208;3.288;2023-01-04T15:32:21;12.80;99.90
61145;DHT22;47026;51.208;3.288;2023-01-04T15:34:47;12.80;99.90
61145;DHT22;47026;51.208;3.288;2023-01-04T15:37:14;12.70;99.90
61145;DHT22;47026;51.208;3.288;2023-01-04T15:39:39;12.70;99.90
61145;DHT22;47026;51.208;3.288;2023-01-04T15:42:05;12.70;99.90
61145;DHT22;47026;51.208;3.288;2023-01-04T15:44:49;12.70;99.90
61145;DHT22;47026;51.208;3.288;2023-01-04T15:47:15;12.80;99.90
61145;DHT22;47026;51.208;3.288;2023-01-04T15:49:41;12.70;99.90
61145;DHT22;47026;51.208;3.288;2023-01-04T15:52:06;12.70;99.90
61145;DHT22;47026;51.208;3.288;2023-01-04T15:54:32;12.70;99.90
61145;DHT22;47026;51.208;3.288;2023-01-04T15:56:58;12.70;99.90
61145;DHT22;47026;51.208;3.288;2023-01-04T15:59:24;12.80;99.90
61145;DHT22;47026;51.208;3.288;2023-01-04T16:01:50;12.70;99.90
61145;DHT22;47026;51.208;3.288;2023-01-04T16:04:16;12.80;99.90
61145;DHT22;47026;51.208;3.288;2023-01-04T16:06:41;12.70;99.90
61145;DHT22;47026;51.208;3.288;2023-01-04T16:09:07;12.80;99.90
61145;DHT22;47026;51.208;3.288;2023-01-04T16:11:33;12.80;99.90
61145;DHT22;47026;51.208;3.288;2023-01-04T16:13:59;12.80;99.90
61145;DHT22;47026;51.208;3.288;2023-01-04T16:16:25;12.70;99.90
61145;DHT22;47026;51.208;3.288;2023-01-04T16:18:55;12.70;99.90
61145;DHT22;47026;51.208;3.288;2023-01-04T16:21:22;12.80;99.90
61145;DHT22;47026;51.208;3.288;2023-01-04T16:23:51;12.80;99.90
61145;DHT22;47026;51.208;3.288;2023-01-04T16:26:17;12.90;99.90
61145;DHT22;47026;51.208;3.288;2023-01-04T16:28:42;12.80;99.90
61145;DHT22;47026;51.208;3.288;2023-01-04T16:31:13;12.80;99.90
61145;DHT22;47026;51.208;3.288;2023-01-04T16:33:42;12.80;99.90
61145;DHT22;47026;51.208;3.288;2023-01-04T16:36:11;12.80;99.90
61145;DHT22;47026;51.208;3.288;2023-01-04T16:38:38;12.80;99.90
61145;DHT22;47026;51.208;3.288;2023-01-04T16:41:04;12.80;99.90
61145;DHT22;47026;51.208;3.288;2023-01-04T16:43:30;12.80;99.90
61145;DHT22;47026;51.208;3.288;2023-01-04T16:48:41;12.80;99.90
61145;DHT22;47026;51.208;3.288;2023-01-04T16:51:07;12.70;99.90
61145;DHT22;47026;51.208;3.288;2023-01-04T16:53:36;12.80;99.90
61145;DHT22;47026;51.208;3.288;2023-01-04T16:56:02;12.80;99.90
61145;DHT22;47026;51.208;3.288;2023-01-04T16:58:28;12.80;99.90
61145;DHT22;47026;51.208;3.288;2023-01-04T17:00:54;12.80;99.90
61145;DHT22;47026;51.208;3.288;2023-01-04T17:03:20;12.80;99.90
61145;DHT22;47026;51.208;3.288;2023-01-04T17:05:45;12.80;99.90
61145;DHT22;47026;51.208;3.288;2023-01-04T17:08:11;12.80;99.90
61145;DHT22;47026;51.208;3.288;2023-01-04T17:10:37;12.80;99.90
61145;DHT22;47026;51.208;3.288;2023-01-04T17:13:02;12.90;99.90
61145;DHT22;47026;51.208;3.288;2023-01-04T17:15:28;12.90;99.90
61145;DHT22;47026;51.208;3.288;2023-01-04T17:17:54;12.90;99.90
61145;DHT22;47026;51.208;3.288;2023-01-04T17:20:19;12.90;99.90
61145;DHT22;47026;51.208;3.288;2023-01-04T17:22:45;12.90;99.90
61145;DHT22;47026;51.208;3.288;2023-01-04T17:25:11;12.90;99.90
61145;DHT22;47026;51.208;3.288;2023-01-04T17:27:36;12.90;99.90
61145;DHT22;47026;51.208;3.288;2023-01-04T17:30:02;12.80;99.90
61145;DHT22;47026;51.208;3.288;2023-01-04T17:32:28;12.80;99.90
61145;DHT22;47026;51.208;3.288;2023-01-04T17:34:54;12.70;99.90